sensor_id;sensor_type;location;lat;lon;timestamp;temperature;humidity
17762;DHT22;9005;48.838;10.112;2023-02-28T00:00:51;-2.10;99.90
17762;DHT22;9005;48.838;10.112;2023-02-28T00:03:20;-2.10;99.90
17762;DHT22;9005;48.838;10.112;2023-02-28T00:05:46;-2.10;99.90
17762;DHT22;9005;48.838;10.112;2023-02-28T00:08:13;-2.10;99.90
17762;DHT22;9005;48.838;10.112;2023-02-28T00:10:40;-2.10;99.90
17762;DHT22;9005;48.838;10.112;2023-02-28T00:13:07;-2.10;99.90
17762;DHT22;9005;48.838;10.112;2023-02-28T00:15:34;-2.10;99.90
17762;DHT22;9005;48.838;10.112;2023-02-28T00:18:01;-2.10;99.90
17762;DHT22;9005;48.838;10.112;2023-02-28T00:20:29;-0.70;99.90
17762;DHT22;9005;48.838;10.112;2023-02-28T00:22:56;-2.10;99.90
17762;DHT22;9005;48.838;10.112;2023-02-28T00:25:24;-2.10;99.90
17762;DHT22;9005;48.838;10.112;2023-02-28T00:27:52;-2.10;99.90
17762;DHT22;9005;48.838;10.112;2023-02-28T00:30:20;-2.10;99.90
17762;DHT22;9005;48.838;10.112;2023-02-28T00:32:48;-2.10;99.90
17762;DHT22;9005;48.838;10.112;2023-02-28T00:35:15;-2.10;99.90
17762;DHT22;9005;48.838;10.112;2023-02-28T00:37:43;-2.10;99.90
17762;DHT22;9005;48.838;10.112;2023-02-28T00:40:11;-2.20;99.90
17762;DHT22;9005;48.838;10.112;2023-02-28T00:42:38;-2.20;99.90
17762;DHT22;9005;48.838;10.112;2023-02-28T00:45:05;-2.20;99.90
17762;DHT22;9005;48.838;10.112;2023-02-28T00:47:33;-2.20;99.90
17762;DHT22;9005;48.838;10.112;2023-02-28T00:50:00;-2.20;99.90
17762;DHT22;9005;48.838;10.112;2023-02-28T00:52:27;-2.20;99.90
17762;DHT22;9005;48.838;10.112;2023-02-28T00:54:55;-2.20;99.90
17762;DHT22;9005;48.838;10.112;2023-02-28T00:57:22;-2.30;99.90
17762;DHT22;9005;48.838;10.112;2023-02-28T00:59:49;-2.30;99.90
17762;DHT22;9005;48.838;10.112;2023-02-28T01:02:16;-2.30;99.90
17762;DHT22;9005;48.838;10.112;2023-02-28T01:04:43;-2.30;99.90
17762;DHT22;9005;48.838;10.112;2023-02-28T01:07:10;-2.40;99.90
17762;DHT22;9005;48.838;10.112;2023-02-28T01:09:36;-2.40;99.90
17762;DHT22;9005;48.838;10.112;2023-02-28T01:12:07;-2.40;99.90
17762;DHT22;9005;48.838;10.112;2023-02-28T01:14:34;-2.40;99.90
17762;DHT22;9005;48.838;10.112;2023-02-28T01:17:01;-2.50;99.90
17762;DHT22;9005;48.838;10.112;2023-02-28T01:19:28;-2.50;99.90
17762;DHT22;9005;48.838;10.112;2023-02-28T01:21:54;-2.50;99.90
17762;DHT22;9005;48.838;10.112;2023-02-28T01:24:21;-2.50;99.90
17762;DHT22;9005;48.838;10.112;2023-02-28T01:26:48;-2.60;99.90
17762;DHT22;9005;48.838;10.112;2023-02-28T01:29:16;-2.60;99.90
17762;DHT22;9005;48.838;10.112;2023-02-28T01:31:43;-2.60;99.90
17762;DHT22;9005;48.838;10.112;2023-02-28T01:34:10;-2.60;99.90
17762;DHT22;9005;48.838;10.112;2023-02-28T01:36:36;-2.60;99.90
17762;DHT22;9005;48.838;10.112;2023-02-28T01:39:03;-2.60;99.90
17762;DHT22;9005;48.838;10.112;2023-02-28T01:41:32;-2.60;99.90
17762;DHT22;9005;48.838;10.112;2023-02-28T01:44:02;-2.60;99.90
17762;DHT22;9005;48.838;10.112;2023-02-28T01:46:31;-2.60;99.90
17762;DHT22;9005;48.838;10.112;2023-02-28T01:49:03;-2.60;99.90
17762;DHT22;9005;48.838;10.112;2023-02-28T01:51:36;-2.60;99.90
17762;DHT22;9005;48.838;10.112;2023-02-28T01:54:07;-2.70;99.90
17762;DHT22;9005;48.838;10.112;2023-02-28T01:56:42;-2.70;99.90
17762;DHT22;9005;48.838;10.112;2023-02-28T01:59:12;-2.70;99.90
17762;DHT22;9005;48.838;10.112;2023-02-28T02:01:42;-2.70;99.90
17762;DHT22;9005;48.838;10.112;2023-02-28T02:04:09;-2.60;99.90
17762;DHT22;9005;48.838;10.112;2023-02-28T02:06:38;-2.60;99.90
17762;DHT22;9005;48.838;10.112;2023-02-28T02:09:05;-2.60;99.90
17762;DHT22;9005;48.838;10.112;2023-02-28T02:11:33;-2.60;99.90
17762;DHT22;9005;48.838;10.112;2023-02-28T02:14:17;-2.70;99.90
17762;DHT22;9005;48.838;10.112;2023-02-28T02:16:55;-2.70;99.90
17762;DHT22;9005;48.838;10.112;2023-02-28T02:25:30;-2.80;99.90
17762;DHT22;9005;48.838;10.112;2023-02-28T02:28:11;-2.90;99.90
17762;DHT22;9005;48.838;10.112;2023-02-28T02:31:09;-2.90;99.90
17762;DHT22;9005;48.838;10.112;2023-02-28T02:36:46;-2.90;99.90
17762;DHT22;9005;48.838;10.112;2023-02-28T02:39:22;-2.90;99.90
17762;DHT22;9005;48.838;10.112;2023-02-28T02:41:52;-2.90;99.90
17762;DHT22;9005;48.838;10.112;2023-02-28T02:44:22;-2.80;99.90
17762;DHT22;9005;48.838;10.112;2023-02-28T02:46:51;-2.80;99.90
17762;DHT22;9005;48.838;10.112;2023-02-28T02:49:24;-2.80;99.90
17762;DHT22;9005;48.838;10.112;2023-02-28T02:51:55;-2.70;99.90
17762;DHT22;9005;48.838;10.112;2023-02-28T02:54:26;-2.70;99.90
17762;DHT22;9005;48.838;10.112;2023-02-28T02:56:56;-2.60;99.90
17762;DHT22;9005;48.838;10.112;2023-02-28T02:59:24;-2.60;99.90
17762;DHT22;9005;48.838;10.112;2023-02-28T03:01:54;-2.50;99.90
17762;DHT22;9005;48.838;10.112;2023-02-28T03:04:23;-2.50;99.90
17762;DHT22;9005;48.838;10.112;2023-02-28T03:06:51;-2.50;99.90
17762;DHT22;9005;48.838;10.112;2023-02-28T03:09:21;-2.50;99.90
17762;DHT22;9005;48.838;10.112;2023-02-28T03:11:49;-2.50;99.90
17762;DHT22;9005;48.838;10.112;2023-02-28T03:14:25;-2.40;99.90
17762;DHT22;9005;48.838;10.112;2023-02-28T03:17:16;-2.40;99.90
17762;DHT22;9005;48.838;10.112;2023-02-28T03:19:55;-2.40;99.90
17762;DHT22;9005;48.838;10.112;2023-02-28T03:22:44;-2.30;99.90
17762;DHT22;9005;48.838;10.112;2023-02-28T03:25:20;-2.30;99.90
17762;DHT22;9005;48.838;10.112;2023-02-28T03:27:58;-2.30;99.90
17762;DHT22;9005;48.838;10.112;2023-02-28T03:30:31;-2.30;99.90
17762;DHT22;9005;48.838;10.112;2023-02-28T03:33:05;-2.30;99.90
17762;DHT22;9005;48.838;10.112;2023-02-28T03:35:36;-2.20;99.90
17762;DHT22;9005;48.838;10.112;2023-02-28T03:38:09;-2.20;99.90
17762;DHT22;9005;48.838;10.112;2023-02-28T03:40:44;-2.20;99.90
17762;DHT22;9005;48.838;10.112;2023-02-28T03:43:17;-2.20;99.90
17762;DHT22;9005;48.838;10.112;2023-02-28T03:45:45;-2.20;99.90
17762;DHT22;9005;48.838;10.112;2023-02-28T03:48:17;-2.20;99.90
17762;DHT22;9005;48.838;10.112;2023-02-28T03:50:48;-2.20;99.90
17762;DHT22;9005;48.838;10.112;2023-02-28T03:53:19;-2.20;99.90
17762;DHT22;9005;48.838;10.112;2023-02-28T03:55:51;-2.20;99.90
17762;DHT22;9005;48.838;10.112;2023-02-28T03:58:24;-2.20;99.90
17762;DHT22;9005;48.838;10.112;2023-02-28T04:00:56;-2.20;99.90
17762;DHT22;9005;48.838;10.112;2023-02-28T04:03:25;-2.10;99.90
17762;DHT22;9005;48.838;10.112;2023-02-28T04:05:54;-2.20;99.90
17762;DHT22;9005;48.838;10.112;2023-02-28T04:08:22;-2.20;99.90
17762;DHT22;9005;48.838;10.112;2023-02-28T04:10:54;-2.20;99.90
17762;DHT22;9005;48.838;10.112;2023-02-28T04:13:22;-2.20;99.90
17762;DHT22;9005;48.838;10.112;2023-02-28T04:15:49;-2.20;99.90
17762;DHT22;9005;48.838;10.112;2023-02-28T04:18:15;-2.20;99.90
17762;DHT22;9005;48.838;10.112;2023-02-28T04:20:42;-2.20;99.90
17762;DHT22;9005;48.838;10.112;2023-02-28T04:23:09;-2.20;99.90
17762;DHT22;9005;48.838;10.112;2023-02-28T04:25:36;-2.20;99.90
17762;DHT22;9005;48.838;10.112;2023-02-28T04:28:04;-2.20;99.90
17762;DHT22;9005;48.838;10.112;2023-02-28T04:30:31;-2.20;99.90
17762;DHT22;9005;48.838;10.112;2023-02-28T04:32:58;-2.20;99.90
17762;DHT22;9005;48.838;10.112;2023-02-28T04:35:26;-2.20;99.90
17762;DHT22;9005;48.838;10.112;2023-02-28T04:37:52;-2.20;99.90
17762;DHT22;9005;48.838;10.112;2023-02-28T04:40:19;-2.20;99.90
17762;DHT22;9005;48.838;10.112;2023-02-28T04:42:46;-2.20;99.90
17762;DHT22;9005;48.838;10.112;2023-02-28T04:45:14;-2.20;99.90
17762;DHT22;9005;48.838;10.112;2023-02-28T04:47:40;-2.20;99.90
17762;DHT22;9005;48.838;10.112;2023-02-28T04:50:08;-2.20;99.90
17762;DHT22;9005;48.838;10.112;2023-02-28T04:52:35;-2.20;99.90
17762;DHT22;9005;48.838;10.112;2023-02-28T04:55:02;-2.20;99.90
17762;DHT22;9005;48.838;10.112;2023-02-28T04:57:29;-2.20;99.90
17762;DHT22;9005;48.838;10.112;2023-02-28T04:59:55;-2.20;99.90
17762;DHT22;9005;48.838;10.112;2023-02-28T05:02:23;-2.20;99.90
17762;DHT22;9005;48.838;10.112;2023-02-28T05:04:50;-2.20;99.90
17762;DHT22;9005;48.838;10.112;2023-02-28T05:07:17;-2.20;99.90
17762;DHT22;9005;48.838;10.112;2023-02-28T05:09:43;-2.20;99.90
17762;DHT22;9005;48.838;10.112;2023-02-28T05:12:10;-2.20;99.90
17762;DHT22;9005;48.838;10.112;2023-02-28T05:14:37;-2.20;99.90
17762;DHT22;9005;48.838;10.112;2023-02-28T05:17:03;-2.20;99.90
17762;DHT22;9005;48.838;10.112;2023-02-28T05:19:32;-2.20;99.90
17762;DHT22;9005;48.838;10.112;2023-02-28T05:21:58;-2.20;99.90
17762;DHT22;9005;48.838;10.112;2023-02-28T05:24:25;-2.20;99.90
17762;DHT22;9005;48.838;10.112;2023-02-28T05:26:53;-2.20;99.90
17762;DHT22;9005;48.838;10.112;2023-02-28T05:29:20;-2.20;99.90
17762;DHT22;9005;48.838;10.112;2023-02-28T05:31:47;-2.20;99.90
17762;DHT22;9005;48.838;10.112;2023-02-28T05:34:14;-2.20;99.90
17762;DHT22;9005;48.838;10.112;2023-02-28T05:36:42;-2.20;99.90
17762;DHT22;9005;48.838;10.112;2023-02-28T05:39:09;-2.20;99.90
17762;DHT22;9005;48.838;10.112;2023-02-28T05:41:39;-2.20;99.90
17762;DHT22;9005;48.838;10.112;2023-02-28T05:44:06;-2.20;99.90
17762;DHT22;9005;48.838;10.112;2023-02-28T05:46:33;-2.20;99.90
17762;DHT22;9005;48.838;10.112;2023-02-28T05:49:00;-2.20;99.90
17762;DHT22;9005;48.838;10.112;2023-02-28T05:51:26;-2.30;99.90
17762;DHT22;9005;48.838;10.112;2023-02-28T05:53:54;-2.30;99.90
17762;DHT22;9005;48.838;10.112;2023-02-28T05:56:24;-2.30;99.90
17762;DHT22;9005;48.838;10.112;2023-02-28T05:58:51;-2.20;99.90
17762;DHT22;9005;48.838;10.112;2023-02-28T06:01:24;-2.30;99.90
17762;DHT22;9005;48.838;10.112;2023-02-28T06:03:51;-2.30;99.90
17762;DHT22;9005;48.838;10.112;2023-02-28T06:06:17;-2.30;99.90
17762;DHT22;9005;48.838;10.112;2023-02-28T06:08:44;-2.20;99.90
17762;DHT22;9005;48.838;10.112;2023-02-28T06:11:12;-2.30;99.90
17762;DHT22;9005;48.838;10.112;2023-02-28T06:13:39;-2.30;99.90
17762;DHT22;9005;48.838;10.112;2023-02-28T06:16:07;-2.30;99.90
17762;DHT22;9005;48.838;10.112;2023-02-28T06:18:34;-2.20;99.90
17762;DHT22;9005;48.838;10.112;2023-02-28T06:21:01;-2.20;99.90
17762;DHT22;9005;48.838;10.112;2023-02-28T06:23:28;-2.20;99.90
17762;DHT22;9005;48.838;10.112;2023-02-28T06:25:55;-2.20;99.90
17762;DHT22;9005;48.838;10.112;2023-02-28T06:28:25;-2.20;99.90
17762;DHT22;9005;48.838;10.112;2023-02-28T06:30:52;-2.20;99.90
17762;DHT22;9005;48.838;10.112;2023-02-28T06:33:18;-2.20;99.90
17762;DHT22;9005;48.838;10.112;2023-02-28T06:35:46;-2.20;99.90
17762;DHT22;9005;48.838;10.112;2023-02-28T06:38:13;-2.20;99.90
17762;DHT22;9005;48.838;10.112;2023-02-28T06:40:40;-2.20;99.90
17762;DHT22;9005;48.838;10.112;2023-02-28T06:43:07;-2.20;99.90
17762;DHT22;9005;48.838;10.112;2023-02-28T06:45:35;-2.20;99.90
17762;DHT22;9005;48.838;10.112;2023-02-28T06:48:01;-2.20;99.90
17762;DHT22;9005;48.838;10.112;2023-02-28T06:50:28;-2.10;99.90
17762;DHT22;9005;48.838;10.112;2023-02-28T06:52:56;-2.10;99.90
17762;DHT22;9005;48.838;10.112;2023-02-28T06:55:23;-2.10;99.90
17762;DHT22;9005;48.838;10.112;2023-02-28T06:57:49;-2.10;99.90
17762;DHT22;9005;48.838;10.112;2023-02-28T07:00:17;-2.00;99.90
17762;DHT22;9005;48.838;10.112;2023-02-28T07:02:45;-2.00;99.90
17762;DHT22;9005;48.838;10.112;2023-02-28T07:05:12;-2.00;99.90
17762;DHT22;9005;48.838;10.112;2023-02-28T07:07:39;-2.00;99.90
17762;DHT22;9005;48.838;10.112;2023-02-28T07:10:10;-1.90;99.90
17762;DHT22;9005;48.838;10.112;2023-02-28T07:12:38;-1.90;99.90
17762;DHT22;9005;48.838;10.112;2023-02-28T07:15:05;-1.80;99.90
17762;DHT22;9005;48.838;10.112;2023-02-28T07:17:32;-1.80;99.90
17762;DHT22;9005;48.838;10.112;2023-02-28T07:20:01;-1.90;99.90
17762;DHT22;9005;48.838;10.112;2023-02-28T07:22:29;-1.90;99.90
17762;DHT22;9005;48.838;10.112;2023-02-28T07:24:56;-1.90;99.90
17762;DHT22;9005;48.838;10.112;2023-02-28T07:27:23;-1.90;99.90
17762;DHT22;9005;48.838;10.112;2023-02-28T07:29:51;-1.70;99.90
17762;DHT22;9005;48.838;10.112;2023-02-28T08:11:39;0.30;99.90
17762;DHT22;9005;48.838;10.112;2023-02-28T08:14:06;0.20;99.90
17762;DHT22;9005;48.838;10.112;2023-02-28T08:16:33;0.20;99.90
17762;DHT22;9005;48.838;10.112;2023-02-28T08:18:59;0.20;99.90
17762;DHT22;9005;48.838;10.112;2023-02-28T08:21:26;0.40;99.90
17762;DHT22;9005;48.838;10.112;2023-02-28T08:23:53;0.40;99.90
17762;DHT22;9005;48.838;10.112;2023-02-28T08:26:20;0.50;99.90
17762;DHT22;9005;48.838;10.112;2023-02-28T08:28:48;0.50;99.90
17762;DHT22;9005;48.838;10.112;2023-02-28T08:31:16;0.60;99.90
17762;DHT22;9005;48.838;10.112;2023-02-28T08:33:43;0.70;99.90
17762;DHT22;9005;48.838;10.112;2023-02-28T08:36:11;0.80;99.90
17762;DHT22;9005;48.838;10.112;2023-02-28T08:38:38;0.90;99.90
17762;DHT22;9005;48.838;10.112;2023-02-28T08:41:06;1.00;99.90
17762;DHT22;9005;48.838;10.112;2023-02-28T08:43:34;1.00;99.90
17762;DHT22;9005;48.838;10.112;2023-02-28T08:46:03;1.10;99.90
17762;DHT22;9005;48.838;10.112;2023-02-28T08:48:32;1.20;99.90
17762;DHT22;9005;48.838;10.112;2023-02-28T08:51:00;1.30;99.90
17762;DHT22;9005;48.838;10.112;2023-02-28T08:53:27;1.40;99.90
17762;DHT22;9005;48.838;10.112;2023-02-28T08:55:58;1.50;99.90
17762;DHT22;9005;48.838;10.112;2023-02-28T08:58:25;1.50;99.90
17762;DHT22;9005;48.838;10.112;2023-02-28T09:00:52;1.60;99.90
17762;DHT22;9005;48.838;10.112;2023-02-28T09:03:21;1.90;99.90
17762;DHT22;9005;48.838;10.112;2023-02-28T09:05:53;1.90;99.90
17762;DHT22;9005;48.838;10.112;2023-02-28T09:08:19;2.10;99.90
17762;DHT22;9005;48.838;10.112;2023-02-28T09:10:46;2.10;99.90
17762;DHT22;9005;48.838;10.112;2023-02-28T09:13:13;2.30;99.90
17762;DHT22;9005;48.838;10.112;2023-02-28T09:15:40;2.40;99.90
17762;DHT22;9005;48.838;10.112;2023-02-28T09:18:06;2.50;99.90
17762;DHT22;9005;48.838;10.112;2023-02-28T09:20:37;2.60;99.90
17762;DHT22;9005;48.838;10.112;2023-02-28T09:23:04;2.70;99.90
17762;DHT22;9005;48.838;10.112;2023-02-28T09:25:30;2.80;99.90
17762;DHT22;9005;48.838;10.112;2023-02-28T09:27:57;2.80;99.90
17762;DHT22;9005;48.838;10.112;2023-02-28T09:30:24;2.90;99.90
17762;DHT22;9005;48.838;10.112;2023-02-28T09:32:50;2.90;99.90
17762;DHT22;9005;48.838;10.112;2023-02-28T09:35:19;3.10;99.90
17762;DHT22;9005;48.838;10.112;2023-02-28T09:37:48;3.20;99.90
17762;DHT22;9005;48.838;10.112;2023-02-28T09:40:15;3.30;99.90
17762;DHT22;9005;48.838;10.112;2023-02-28T09:42:46;3.40;99.90
17762;DHT22;9005;48.838;10.112;2023-02-28T09:45:24;3.60;99.90
17762;DHT22;9005;48.838;10.112;2023-02-28T09:47:56;3.70;99.90
17762;DHT22;9005;48.838;10.112;2023-02-28T09:50:31;4.20;99.90
17762;DHT22;9005;48.838;10.112;2023-02-28T09:53:03;4.20;99.90
17762;DHT22;9005;48.838;10.112;2023-02-28T09:55:34;4.90;98.20
17762;DHT22;9005;48.838;10.112;2023-02-28T09:58:04;5.90;93.60
17762;DHT22;9005;48.838;10.112;2023-02-28T10:00:34;5.90;93.70
17762;DHT22;9005;48.838;10.112;2023-02-28T10:03:11;6.60;86.10
17762;DHT22;9005;48.838;10.112;2023-02-28T10:05:48;7.00;79.60
17762;DHT22;9005;48.838;10.112;2023-02-28T10:08:21;7.00;72.90
17762;DHT22;9005;48.838;10.112;2023-02-28T10:10:51;6.90;75.30
17762;DHT22;9005;48.838;10.112;2023-02-28T10:13:25;6.70;80.30
17762;DHT22;9005;48.838;10.112;2023-02-28T10:15:56;6.90;78.10
17762;DHT22;9005;48.838;10.112;2023-02-28T10:18:27;6.90;74.80
17762;DHT22;9005;48.838;10.112;2023-02-28T10:20:56;6.80;73.60
17762;DHT22;9005;48.838;10.112;2023-02-28T10:23:27;6.70;76.00
17762;DHT22;9005;48.838;10.112;2023-02-28T10:25:58;6.50;78.30
17762;DHT22;9005;48.838;10.112;2023-02-28T10:28:26;6.50;79.60
17762;DHT22;9005;48.838;10.112;2023-02-28T10:30:57;6.70;85.40
17762;DHT22;9005;48.838;10.112;2023-02-28T10:33:28;7.60;75.20
17762;DHT22;9005;48.838;10.112;2023-02-28T10:35:55;8.40;69.20
17762;DHT22;9005;48.838;10.112;2023-02-28T10:38:26;9.40;63.70
17762;DHT22;9005;48.838;10.112;2023-02-28T10:41:03;10.70;55.20
17762;DHT22;9005;48.838;10.112;2023-02-28T10:43:30;11.60;49.20
17762;DHT22;9005;48.838;10.112;2023-02-28T10:46:01;12.20;48.20
17762;DHT22;9005;48.838;10.112;2023-02-28T10:48:32;12.90;45.00
17762;DHT22;9005;48.838;10.112;2023-02-28T10:50:59;13.40;41.90
17762;DHT22;9005;48.838;10.112;2023-02-28T10:53:37;13.90;41.20
17762;DHT22;9005;48.838;10.112;2023-02-28T10:56:06;14.40;37.30
17762;DHT22;9005;48.838;10.112;2023-02-28T10:58:49;14.80;36.50
17762;DHT22;9005;48.838;10.112;2023-02-28T11:01:17;15.40;34.30
17762;DHT22;9005;48.838;10.112;2023-02-28T11:03:45;15.20;34.20
17762;DHT22;9005;48.838;10.112;2023-02-28T11:06:17;15.10;33.60
17762;DHT22;9005;48.838;10.112;2023-02-28T11:08:51;15.00;32.60
17762;DHT22;9005;48.838;10.112;2023-02-28T11:11:19;15.00;30.90
17762;DHT22;9005;48.838;10.112;2023-02-28T11:13:47;14.30;31.40
17762;DHT22;9005;48.838;10.112;2023-02-28T11:16:16;13.70;31.50
17762;DHT22;9005;48.838;10.112;2023-02-28T11:18:47;13.30;35.60
17762;DHT22;9005;48.838;10.112;2023-02-28T11:21:18;14.10;34.60
17762;DHT22;9005;48.838;10.112;2023-02-28T11:23:45;13.20;34.30
17762;DHT22;9005;48.838;10.112;2023-02-28T11:26:14;13.30;33.30
17762;DHT22;9005;48.838;10.112;2023-02-28T11:28:42;13.70;34.20
17762;DHT22;9005;48.838;10.112;2023-02-28T11:31:17;14.50;33.10
17762;DHT22;9005;48.838;10.112;2023-02-28T11:33:47;15.20;30.20
17762;DHT22;9005;48.838;10.112;2023-02-28T11:36:18;15.80;33.20
17762;DHT22;9005;48.838;10.112;2023-02-28T11:38:45;16.40;30.00
17762;DHT22;9005;48.838;10.112;2023-02-28T11:44:34;16.60;27.70
17762;DHT22;9005;48.838;10.112;2023-02-28T11:47:11;16.80;27.00
17762;DHT22;9005;48.838;10.112;2023-02-28T11:49:48;17.00;26.70
17762;DHT22;9005;48.838;10.112;2023-02-28T11:52:21;16.70;26.10
17762;DHT22;9005;48.838;10.112;2023-02-28T11:55:01;16.70;26.50
17762;DHT22;9005;48.838;10.112;2023-02-28T11:57:58;16.80;26.90
17762;DHT22;9005;48.838;10.112;2023-02-28T12:00:39;16.70;27.40
17762;DHT22;9005;48.838;10.112;2023-02-28T12:03:16;16.90;27.20
17762;DHT22;9005;48.838;10.112;2023-02-28T12:05:46;16.60;25.70
17762;DHT22;9005;48.838;10.112;2023-02-28T12:08:25;16.70;26.60
17762;DHT22;9005;48.838;10.112;2023-02-28T12:11:00;16.90;25.60
17762;DHT22;9005;48.838;10.112;2023-02-28T12:13:37;17.00;26.40
17762;DHT22;9005;48.838;10.112;2023-02-28T12:16:39;17.20;27.20
17762;DHT22;9005;48.838;10.112;2023-02-28T12:19:16;17.50;25.20
17762;DHT22;9005;48.838;10.112;2023-02-28T12:22:16;17.80;25.60
17762;DHT22;9005;48.838;10.112;2023-02-28T12:25:18;17.80;23.30
17762;DHT22;9005;48.838;10.112;2023-02-28T12:27:47;17.50;24.70
17762;DHT22;9005;48.838;10.112;2023-02-28T12:30:19;17.30;24.90
17762;DHT22;9005;48.838;10.112;2023-02-28T12:32:51;17.50;25.00
17762;DHT22;9005;48.838;10.112;2023-02-28T12:35:23;17.20;24.30
17762;DHT22;9005;48.838;10.112;2023-02-28T12:37:55;17.50;24.90
17762;DHT22;9005;48.838;10.112;2023-02-28T12:40:26;17.60;24.50
17762;DHT22;9005;48.838;10.112;2023-02-28T12:42:57;17.80;24.20
17762;DHT22;9005;48.838;10.112;2023-02-28T12:45:39;17.90;23.90
17762;DHT22;9005;48.838;10.112;2023-02-28T12:48:10;18.20;24.30
17762;DHT22;9005;48.838;10.112;2023-02-28T12:50:40;18.10;23.50
17762;DHT22;9005;48.838;10.112;2023-02-28T12:53:09;18.30;24.10
17762;DHT22;9005;48.838;10.112;2023-02-28T12:55:42;18.40;23.70
17762;DHT22;9005;48.838;10.112;2023-02-28T12:58:17;18.60;23.80
17762;DHT22;9005;48.838;10.112;2023-02-28T13:03:45;19.60;21.80
17762;DHT22;9005;48.838;10.112;2023-02-28T13:06:39;19.50;22.60
17762;DHT22;9005;48.838;10.112;2023-02-28T13:09:10;19.40;22.50
17762;DHT22;9005;48.838;10.112;2023-02-28T13:11:43;19.20;22.40
17762;DHT22;9005;48.838;10.112;2023-02-28T13:14:26;19.10;22.00
17762;DHT22;9005;48.838;10.112;2023-02-28T13:17:02;18.30;22.90
17762;DHT22;9005;48.838;10.112;2023-02-28T13:19:32;18.20;23.00
17762;DHT22;9005;48.838;10.112;2023-02-28T13:22:00;18.20;23.00
17762;DHT22;9005;48.838;10.112;2023-02-28T13:24:41;18.40;23.10
17762;DHT22;9005;48.838;10.112;2023-02-28T13:27:24;18.30;23.10
17762;DHT22;9005;48.838;10.112;2023-02-28T13:29:57;18.50;22.90
17762;DHT22;9005;48.838;10.112;2023-02-28T13:32:42;18.60;22.70
17762;DHT22;9005;48.838;10.112;2023-02-28T13:38:37;18.50;22.90
17762;DHT22;9005;48.838;10.112;2023-02-28T13:41:46;18.40;23.10
17762;DHT22;9005;48.838;10.112;2023-02-28T13:44:15;18.30;23.70
17762;DHT22;9005;48.838;10.112;2023-02-28T13:47:20;17.90;23.20
17762;DHT22;9005;48.838;10.112;2023-02-28T13:49:48;17.50;23.80
17762;DHT22;9005;48.838;10.112;2023-02-28T13:52:20;17.20;24.00
17762;DHT22;9005;48.838;10.112;2023-02-28T13:55:22;17.00;24.50
17762;DHT22;9005;48.838;10.112;2023-02-28T13:58:00;16.80;24.40
17762;DHT22;9005;48.838;10.112;2023-02-28T14:00:39;16.70;24.60
17762;DHT22;9005;48.838;10.112;2023-02-28T14:03:19;16.50;25.10
17762;DHT22;9005;48.838;10.112;2023-02-28T14:08:57;15.70;25.60
17762;DHT22;9005;48.838;10.112;2023-02-28T14:11:32;15.80;25.70
17762;DHT22;9005;48.838;10.112;2023-02-28T14:14:00;16.00;25.50
17762;DHT22;9005;48.838;10.112;2023-02-28T14:16:36;16.20;24.80
17762;DHT22;9005;48.838;10.112;2023-02-28T14:19:11;16.40;25.10
17762;DHT22;9005;48.838;10.112;2023-02-28T14:21:43;16.40;25.00
17762;DHT22;9005;48.838;10.112;2023-02-28T14:24:41;16.70;25.50
17762;DHT22;9005;48.838;10.112;2023-02-28T14:27:35;16.90;25.60
17762;DHT22;9005;48.838;10.112;2023-02-28T14:33:25;17.40;24.60
17762;DHT22;9005;48.838;10.112;2023-02-28T14:36:10;17.70;23.90
17762;DHT22;9005;48.838;10.112;2023-02-28T14:38:43;17.90;23.50
17762;DHT22;9005;48.838;10.112;2023-02-28T14:41:20;17.80;24.00
17762;DHT22;9005;48.838;10.112;2023-02-28T14:43:51;17.40;24.10
17762;DHT22;9005;48.838;10.112;2023-02-28T14:46:19;17.20;24.50
17762;DHT22;9005;48.838;10.112;2023-02-28T14:48:47;16.90;24.20
17762;DHT22;9005;48.838;10.112;2023-02-28T14:51:19;16.60;24.50
17762;DHT22;9005;48.838;10.112;2023-02-28T14:53:50;16.50;24.60
17762;DHT22;9005;48.838;10.112;2023-02-28T14:56:23;16.50;25.10
17762;DHT22;9005;48.838;10.112;2023-02-28T14:58:56;16.30;25.20
17762;DHT22;9005;48.838;10.112;2023-02-28T15:01:24;15.90;25.30
17762;DHT22;9005;48.838;10.112;2023-02-28T15:04:00;15.70;25.60
17762;DHT22;9005;48.838;10.112;2023-02-28T15:06:28;15.50;26.40
17762;DHT22;9005;48.838;10.112;2023-02-28T15:09:08;14.90;26.50
17762;DHT22;9005;48.838;10.112;2023-02-28T15:11:35;14.60;27.10
17762;DHT22;9005;48.838;10.112;2023-02-28T15:14:05;14.60;28.10
17762;DHT22;9005;48.838;10.112;2023-02-28T15:16:34;14.30;27.80
17762;DHT22;9005;48.838;10.112;2023-02-28T15:19:06;14.20;28.70
17762;DHT22;9005;48.838;10.112;2023-02-28T15:21:35;14.20;28.90
17762;DHT22;9005;48.838;10.112;2023-02-28T15:24:06;14.20;29.10
17762;DHT22;9005;48.838;10.112;2023-02-28T15:26:36;14.20;29.10
17762;DHT22;9005;48.838;10.112;2023-02-28T15:29:07;14.00;29.20
17762;DHT22;9005;48.838;10.112;2023-02-28T15:31:39;13.80;29.60
17762;DHT22;9005;48.838;10.112;2023-02-28T15:34:18;13.50;30.00
17762;DHT22;9005;48.838;10.112;2023-02-28T15:36:45;13.10;31.80
17762;DHT22;9005;48.838;10.112;2023-02-28T15:39:20;12.90;31.20
17762;DHT22;9005;48.838;10.112;2023-02-28T15:41:47;12.70;32.60
17762;DHT22;9005;48.838;10.112;2023-02-28T15:44:22;12.30;32.80
17762;DHT22;9005;48.838;10.112;2023-02-28T15:46:58;12.10;34.00
17762;DHT22;9005;48.838;10.112;2023-02-28T15:49:26;11.80;34.50
17762;DHT22;9005;48.838;10.112;2023-02-28T15:51:56;11.40;35.10
17762;DHT22;9005;48.838;10.112;2023-02-28T15:54:28;11.00;35.90
17762;DHT22;9005;48.838;10.112;2023-02-28T15:56:56;10.50;37.30
17762;DHT22;9005;48.838;10.112;2023-02-28T15:59:27;10.00;40.10
17762;DHT22;9005;48.838;10.112;2023-02-28T16:02:13;9.70;41.70
17762;DHT22;9005;48.838;10.112;2023-02-28T16:04:58;9.50;42.70
17762;DHT22;9005;48.838;10.112;2023-02-28T16:07:26;9.40;42.60
17762;DHT22;9005;48.838;10.112;2023-02-28T16:09:53;9.20;43.80
17762;DHT22;9005;48.838;10.112;2023-02-28T16:12:20;8.80;44.60
17762;DHT22;9005;48.838;10.112;2023-02-28T16:14:51;8.50;46.40
17762;DHT22;9005;48.838;10.112;2023-02-28T16:17:21;8.20;47.80
17762;DHT22;9005;48.838;10.112;2023-02-28T16:19:48;8.00;49.50
17762;DHT22;9005;48.838;10.112;2023-02-28T16:22:14;7.70;50.90
17762;DHT22;9005;48.838;10.112;2023-02-28T16:24:41;7.40;52.30
17762;DHT22;9005;48.838;10.112;2023-02-28T16:27:17;7.10;55.70
17762;DHT22;9005;48.838;10.112;2023-02-28T16:29:45;6.80;57.70
17762;DHT22;9005;48.838;10.112;2023-02-28T16:32:15;6.50;60.90
17762;DHT22;9005;48.838;10.112;2023-02-28T16:34:43;6.20;64.70
17762;DHT22;9005;48.838;10.112;2023-02-28T16:37:12;6.00;71.70
17762;DHT22;9005;48.838;10.112;2023-02-28T16:39:39;5.80;76.70
17762;DHT22;9005;48.838;10.112;2023-02-28T16:42:08;5.60;75.20
17762;DHT22;9005;48.838;10.112;2023-02-28T16:44:37;5.50;75.90
17762;DHT22;9005;48.838;10.112;2023-02-28T16:47:04;5.30;78.00
17762;DHT22;9005;48.838;10.112;2023-02-28T16:49:32;5.20;78.90
17762;DHT22;9005;48.838;10.112;2023-02-28T16:51:59;5.10;80.70
17762;DHT22;9005;48.838;10.112;2023-02-28T16:54:26;5.10;81.90
17762;DHT22;9005;48.838;10.112;2023-02-28T16:56:52;5.00;84.50
17762;DHT22;9005;48.838;10.112;2023-02-28T16:59:22;4.80;86.60
17762;DHT22;9005;48.838;10.112;2023-02-28T17:01:50;4.50;87.30